createdAt,value
2018-05-02T00:01:45.605Z,52.38
2018-05-02T00:04:16.315Z,52.21
2018-05-02T00:06:47.151Z,52.09
2018-05-02T00:09:18.154Z,51.92
2018-05-02T00:11:49.138Z,51.86
2018-05-02T00:14:19.752Z,51.85
2018-05-02T00:16:50.378Z,51.78
2018-05-02T00:19:21.266Z,51.77
2018-05-02T00:21:52.199Z,51.65
2018-05-02T00:24:23.238Z,51.46
2018-05-02T00:26:54.071Z,51.79
2018-05-02T00:29:25.180Z,51.66
2018-05-02T00:31:55.817Z,51.75
2018-05-02T00:34:26.531Z,51.45
2018-05-02T00:36:57.182Z,51.42
2018-05-02T00:39:28.236Z,51.24
2018-05-02T00:41:59.074Z,51.25
2018-05-02T00:44:30.214Z,51.25
2018-05-02T00:47:01.166Z,51.22
2018-05-02T00:49:31.153Z,50.93
2018-05-02T00:52:01.745Z,50.91
2018-05-02T00:54:32.735Z,50.97
2018-05-02T00:57:03.722Z,50.75
2018-05-02T00:59:34.706Z,50.86
2018-05-02T01:02:05.701Z,50.89
2018-05-02T01:04:36.673Z,50.54
2018-05-02T01:07:07.586Z,50.85
2018-05-02T01:09:38.855Z,50.66
2018-05-02T01:12:09.643Z,50.43
2018-05-02T01:14:40.629Z,50.33
2018-05-02T01:17:11.558Z,49.94
2018-05-02T01:19:43.537Z,50.26
2018-05-02T01:22:14.213Z,50.12
2018-05-02T01:24:45.194Z,50.13
2018-05-02T01:27:16.150Z,50.00
2018-05-02T01:29:47.154Z,49.95
2018-05-02T01:32:18.262Z,49.60
2018-05-02T01:34:49.145Z,49.72
2018-05-02T01:37:20.134Z,49.80
2018-05-02T01:39:51.179Z,49.75
2018-05-02T01:42:22.105Z,49.68
2018-05-02T01:44:53.594Z,49.66
2018-05-02T01:47:24.212Z,49.53
2018-05-02T01:49:55.203Z,49.68
2018-05-02T01:52:26.070Z,49.70
2018-05-02T01:54:57.182Z,49.80
2018-05-02T01:57:28.066Z,49.88
2018-05-02T01:59:59.498Z,49.88
2018-05-02T02:02:30.169Z,49.99
2018-05-02T02:05:01.158Z,50.14
2018-05-02T02:07:32.061Z,50.31
2018-05-02T02:10:03.148Z,50.29
2018-05-02T02:12:34.126Z,50.25
2018-05-02T02:15:04.646Z,50.26
2018-05-02T02:17:35.342Z,50.31
2018-05-02T02:20:06.605Z,50.34
2018-05-02T02:22:37.283Z,50.37
2018-05-02T02:25:08.181Z,50.41
2018-05-02T02:27:38.671Z,50.46
2018-05-02T02:30:09.354Z,50.56
2018-05-02T02:32:39.691Z,50.65
2018-05-02T02:35:10.511Z,50.77
2018-05-02T02:37:41.139Z,50.83
2018-05-02T02:40:12.529Z,50.93
2018-05-02T02:42:42.394Z,51.08
2018-05-02T02:45:13.531Z,51.22
2018-05-02T02:47:44.146Z,51.34
2018-05-02T02:50:15.450Z,51.51
2018-05-02T02:52:45.471Z,51.92
2018-05-02T02:55:16.060Z,52.34
2018-05-02T02:57:47.094Z,52.77
2018-05-02T03:00:18.218Z,52.94
2018-05-02T03:02:49.087Z,53.14
2018-05-02T03:05:20.173Z,53.25
2018-05-02T03:07:51.187Z,53.45
2018-05-02T03:10:22.186Z,53.28
2018-05-02T03:12:53.152Z,53.03
2018-05-02T03:15:24.162Z,52.89
2018-05-02T03:17:55.559Z,52.92
2018-05-02T03:20:25.809Z,52.92
2018-05-02T03:22:56.449Z,52.87
2018-05-02T03:25:27.470Z,52.88
2018-05-02T03:27:58.187Z,52.96
2018-05-02T03:30:29.183Z,52.98
2018-05-02T03:33:00.197Z,53.00
2018-05-02T03:35:31.167Z,53.04
2018-05-02T03:38:02.005Z,53.11
2018-05-02T03:40:33.375Z,53.19
2018-05-02T03:43:04.145Z,53.20
2018-05-02T03:45:35.118Z,53.29
2018-05-02T03:48:06.228Z,53.46
2018-05-02T03:50:37.258Z,53.60
2018-05-02T03:53:08.121Z,53.70
2018-05-02T03:55:39.239Z,53.77
2018-05-02T03:58:10.178Z,53.86
2018-05-02T04:00:51.490Z,54.02
2018-05-02T04:03:31.333Z,54.17
2018-05-02T04:06:12.999Z,54.25
2018-05-02T04:08:41.841Z,54.22
2018-05-02T04:11:10.890Z,54.35
2018-05-02T04:13:39.709Z,54.52
2018-05-02T04:16:08.752Z,54.60
2018-05-02T04:18:37.781Z,54.76
2018-05-02T04:21:07.210Z,54.79
2018-05-02T04:23:36.159Z,54.74
2018-05-02T04:26:05.578Z,54.92
2018-05-02T04:28:34.707Z,54.89
2018-05-02T04:31:04.194Z,54.89
2018-05-02T04:33:33.215Z,54.87
2018-05-02T04:36:02.190Z,54.78
2018-05-02T04:38:31.153Z,54.78
2018-05-02T04:41:00.637Z,54.75
2018-05-02T04:43:29.765Z,54.88
2018-05-02T04:45:58.688Z,54.97
2018-05-02T04:48:27.607Z,55.05
2018-05-02T04:50:57.793Z,55.14
2018-05-02T04:53:29.081Z,55.21
2018-05-02T04:55:59.642Z,55.42
2018-05-02T04:58:30.351Z,55.49
2018-05-02T05:01:01.103Z,55.29
2018-05-02T05:03:32.178Z,55.21
2018-05-02T05:06:03.285Z,55.28
2018-05-02T05:08:34.422Z,55.37
2018-05-02T05:11:05.189Z,55.56
2018-05-02T05:13:36.205Z,55.71
2018-05-02T05:16:07.325Z,55.71
2018-05-02T05:18:38.141Z,55.59
2018-05-02T05:21:09.754Z,55.36
2018-05-02T05:23:40.443Z,55.98
2018-05-02T05:26:10.827Z,56.07
2018-05-02T05:28:41.547Z,56.09
2018-05-02T05:31:11.354Z,55.90
2018-05-02T05:33:42.294Z,55.93
2018-05-02T05:36:12.452Z,56.09
2018-05-02T05:38:44.218Z,55.45
2018-05-02T05:41:15.210Z,55.50
2018-05-02T05:43:46.176Z,54.63
2018-05-02T05:46:16.785Z,54.05
2018-05-02T05:48:47.421Z,53.47
2018-05-02T05:51:18.105Z,53.33
2018-05-02T05:53:48.626Z,52.91
2018-05-02T05:56:19.555Z,52.53
2018-05-02T05:58:50.185Z,52.60
2018-05-02T06:01:21.181Z,52.41
2018-05-02T06:03:51.665Z,52.21
2018-05-02T06:06:22.344Z,51.05
2018-05-02T06:08:53.133Z,50.96
2018-05-02T06:11:23.974Z,51.12
2018-05-02T06:13:55.402Z,50.71
2018-05-02T06:16:26.234Z,50.79
2018-05-02T06:18:57.094Z,50.65
2018-05-02T06:21:28.210Z,50.77
2018-05-02T06:23:59.158Z,50.75
2018-05-02T06:26:30.158Z,51.72
2018-05-02T06:29:01.260Z,51.38
2018-05-02T06:31:31.867Z,51.13
2018-05-02T06:34:02.525Z,50.95
2018-05-02T06:36:33.477Z,49.17
2018-05-02T06:39:03.472Z,48.28
2018-05-02T06:41:34.154Z,49.05
2018-05-02T06:44:05.154Z,48.96
2018-05-02T06:46:36.203Z,48.02
2018-05-02T06:49:07.242Z,48.24
2018-05-02T06:51:38.149Z,47.71
2018-05-02T06:54:09.863Z,48.00
2018-05-02T06:56:40.513Z,48.54
2018-05-02T06:59:11.343Z,48.98
2018-05-02T07:01:42.206Z,47.07
2018-05-02T07:04:12.989Z,47.40
2018-05-02T07:06:44.623Z,46.89
2018-05-02T07:09:15.349Z,46.88
2018-05-02T07:11:46.174Z,46.90
2018-05-02T07:14:17.174Z,47.80
2018-05-02T07:16:48.167Z,46.96
2018-05-02T07:19:19.231Z,47.18
2018-05-02T07:21:49.731Z,47.51
2018-05-02T07:24:20.427Z,47.58
2018-05-02T07:26:51.141Z,47.26
2018-05-02T07:29:22.266Z,47.29
2018-05-02T07:31:52.934Z,47.13
2018-05-02T07:34:23.958Z,46.88
2018-05-02T07:36:54.539Z,47.18
2018-05-02T07:39:25.531Z,46.33
2018-05-02T07:41:56.247Z,46.24
2018-05-02T07:44:26.975Z,46.72
2018-05-02T07:46:58.428Z,46.41
2018-05-02T07:49:28.925Z,46.49
2018-05-02T07:52:00.415Z,46.65
2018-05-02T07:54:30.598Z,46.91
2018-05-02T07:57:00.694Z,46.98
2018-05-02T07:59:31.884Z,46.10
2018-05-02T08:02:02.500Z,46.68
2018-05-02T08:04:33.302Z,46.48
2018-05-02T08:07:04.139Z,46.49
2018-05-02T08:09:35.243Z,46.67
2018-05-02T08:12:06.125Z,46.18
2018-05-02T08:14:37.248Z,47.54
2018-05-02T08:17:07.777Z,46.68
2018-05-02T08:19:38.501Z,46.83
2018-05-02T08:22:08.888Z,46.92
2018-05-02T08:24:40.509Z,46.24
2018-05-02T08:27:11.471Z,45.90
2018-05-02T08:29:41.535Z,46.58
2018-05-02T08:32:12.224Z,46.50
2018-05-02T08:34:43.223Z,45.86
2018-05-02T08:37:14.201Z,45.83
2018-05-02T08:39:45.230Z,46.18
2018-05-02T08:42:16.200Z,46.47
2018-05-02T08:44:46.774Z,46.63
2018-05-02T08:47:17.445Z,45.79
2018-05-02T08:49:48.540Z,46.05
2018-05-02T08:52:19.191Z,46.59
2018-05-02T08:54:50.228Z,45.88
2018-05-02T08:57:21.160Z,45.74
2018-05-02T08:59:52.224Z,45.61
2018-05-02T09:02:23.102Z,45.71
2018-05-02T09:04:54.186Z,46.21
2018-05-02T09:07:25.200Z,46.29
2018-05-02T09:09:56.197Z,46.00
2018-05-02T09:12:27.173Z,45.57
2018-05-02T09:14:58.485Z,45.91
2018-05-02T09:17:29.159Z,46.18
2018-05-02T09:20:00.301Z,46.10
2018-05-02T09:22:30.781Z,46.51
2018-05-02T09:25:01.534Z,46.42
2018-05-02T09:27:32.566Z,46.55
2018-05-02T09:30:03.299Z,46.64
2018-05-02T09:32:34.133Z,46.83
2018-05-02T09:35:05.243Z,47.12
2018-05-02T09:37:36.182Z,47.19
2018-05-02T09:40:07.474Z,48.43
2018-05-02T09:42:38.141Z,47.24
2018-05-02T09:45:09.282Z,47.20
2018-05-02T09:47:40.178Z,46.94
2018-05-02T09:50:11.281Z,46.97
2018-05-02T09:52:42.154Z,46.90
2018-05-02T09:55:13.549Z,47.22
2018-05-02T09:57:43.533Z,46.67
2018-05-02T10:00:14.312Z,46.21
2018-05-02T10:02:45.200Z,46.18
2018-05-02T10:05:15.758Z,46.19
2018-05-02T10:07:46.448Z,46.80
2018-05-02T10:10:16.864Z,45.39
2018-05-02T10:12:47.504Z,45.37
2018-05-02T10:15:18.483Z,45.02
2018-05-02T10:17:49.222Z,44.23
2018-05-02T10:20:20.213Z,44.58
2018-05-02T10:22:51.189Z,44.78
2018-05-02T10:25:22.259Z,45.15
2018-05-02T10:27:53.321Z,44.48
2018-05-02T10:30:23.905Z,45.34
2018-05-02T10:32:54.365Z,44.18
2018-05-02T10:35:25.259Z,44.27
2018-05-02T10:37:56.128Z,44.08
2018-05-02T10:40:27.299Z,44.17
2018-05-02T10:42:57.786Z,43.77
2018-05-02T10:45:28.527Z,43.82
2018-05-02T10:47:59.245Z,43.93
2018-05-02T10:50:29.894Z,43.70
2018-05-02T10:53:00.536Z,43.67
2018-05-02T10:55:31.302Z,43.43
2018-05-02T10:58:02.139Z,43.22
2018-05-02T11:00:33.239Z,44.20
2018-05-02T11:03:04.143Z,44.05
2018-05-02T11:05:35.258Z,44.75
2018-05-02T11:08:06.282Z,44.72
2018-05-02T11:10:37.545Z,44.72
2018-05-02T11:13:08.914Z,44.72
2018-05-02T11:15:39.562Z,44.90
2018-05-02T11:18:10.240Z,44.97
2018-05-02T11:20:41.223Z,44.38
2018-05-02T11:23:12.192Z,44.56
2018-05-02T11:25:43.284Z,44.20
2018-05-02T11:28:14.494Z,44.60
2018-05-02T11:30:45.269Z,44.37
2018-05-02T11:33:16.154Z,44.47
2018-05-02T11:35:47.272Z,44.79
2018-05-02T11:38:18.183Z,44.99
2018-05-02T11:40:49.234Z,44.72
2018-05-02T11:43:20.244Z,45.59
2018-05-02T11:45:51.272Z,45.22
2018-05-02T11:48:21.712Z,45.33
2018-05-02T11:50:52.485Z,45.42
2018-05-02T11:53:23.177Z,45.35
2018-05-02T11:55:54.362Z,46.13
2018-05-02T11:58:25.186Z,45.46
2018-05-02T12:00:56.262Z,45.50
2018-05-02T12:03:26.909Z,45.23
2018-05-02T12:05:57.810Z,46.25
2018-05-02T12:08:28.483Z,45.46
2018-05-02T12:10:59.262Z,45.56
2018-05-02T12:13:30.210Z,45.88
2018-05-02T12:16:01.357Z,46.11
2018-05-02T12:18:31.854Z,45.96
2018-05-02T12:21:02.977Z,45.83
2018-05-02T12:23:33.683Z,45.55
2018-05-02T12:26:04.682Z,44.55
2018-05-02T12:28:35.394Z,44.92
2018-05-02T12:31:05.929Z,45.24
2018-05-02T12:33:37.247Z,44.98
2018-05-02T12:36:07.984Z,45.05
2018-05-02T12:38:38.760Z,44.78
2018-05-02T12:41:09.518Z,44.72
2018-05-02T12:43:40.254Z,44.84
2018-05-02T12:46:11.273Z,44.40
2018-05-02T12:48:42.251Z,43.83
2018-05-02T12:51:13.510Z,44.54
2018-05-02T12:53:44.210Z,44.37
2018-05-02T12:56:14.958Z,44.09
2018-05-02T12:58:45.754Z,43.87
2018-05-02T13:01:16.737Z,43.65
2018-05-02T13:03:47.464Z,43.65
2018-05-02T13:06:18.511Z,43.55
2018-05-02T13:08:49.243Z,43.33
2018-05-02T13:11:20.173Z,43.53
2018-05-02T13:13:51.164Z,43.84
2018-05-02T13:16:22.178Z,43.85
2018-05-02T13:18:52.749Z,43.28
2018-05-02T13:21:23.743Z,42.97
2018-05-02T13:23:54.422Z,43.17
2018-05-02T13:26:25.283Z,42.62
2018-05-02T13:28:56.534Z,42.10
2018-05-02T13:31:28.315Z,41.62
2018-05-02T13:33:57.725Z,41.39
2018-05-02T13:36:28.467Z,41.73
2018-05-02T13:38:59.212Z,40.70
2018-05-02T13:41:30.259Z,39.95
2018-05-02T13:44:00.746Z,40.72
2018-05-02T13:46:32.588Z,39.98
2018-05-02T13:49:05.584Z,39.97
2018-05-02T13:51:34.614Z,39.33
2018-05-02T13:54:05.308Z,39.34
2018-05-02T13:56:36.241Z,39.72
2018-05-02T13:59:06.780Z,40.18
2018-05-02T14:01:37.540Z,39.80
2018-05-02T14:04:08.305Z,40.17
2018-05-02T14:06:39.762Z,40.06
2018-05-02T14:09:10.557Z,38.71
2018-05-02T14:11:40.504Z,39.23
2018-05-02T14:14:11.494Z,39.53
2018-05-02T14:16:42.457Z,39.44
2018-05-02T14:19:13.230Z,40.38
2018-05-02T14:21:44.211Z,40.86
2018-05-02T14:24:15.258Z,40.42
2018-05-02T14:26:46.697Z,40.29
2018-05-02T14:29:17.463Z,40.51
2018-05-02T14:31:49.001Z,40.35
2018-05-02T14:34:19.730Z,40.23
2018-05-02T14:36:50.447Z,40.17
2018-05-02T14:39:21.270Z,40.04
2018-05-02T14:41:52.158Z,40.64
2018-05-02T14:44:23.022Z,40.35
2018-05-02T14:46:54.164Z,40.29
2018-05-02T14:49:25.467Z,40.12
2018-05-02T14:51:56.604Z,40.84
2018-05-02T14:54:27.367Z,40.66
2018-05-02T14:56:58.284Z,40.29
2018-05-02T14:59:28.770Z,40.75
2018-05-02T15:01:59.472Z,40.49
2018-05-02T15:04:31.080Z,41.02
2018-05-02T15:07:02.715Z,40.61
2018-05-02T15:09:32.793Z,40.85
2018-05-02T15:12:04.549Z,41.27
2018-05-02T15:14:34.801Z,41.14
2018-05-02T15:17:04.894Z,41.82
2018-05-02T15:19:36.580Z,41.54
2018-05-02T15:22:06.560Z,41.36
2018-05-02T15:24:37.935Z,41.51
2018-05-02T15:27:08.578Z,41.73
2018-05-02T15:29:39.330Z,41.78
2018-05-02T15:32:10.998Z,42.07
2018-05-02T15:34:41.725Z,41.96
2018-05-02T15:37:12.425Z,42.81
2018-05-02T15:39:43.271Z,42.61
2018-05-02T15:42:14.195Z,42.97
2018-05-02T15:44:44.811Z,43.61
2018-05-02T15:47:15.466Z,44.40
2018-05-02T15:49:46.289Z,44.14
2018-05-02T15:52:17.663Z,43.84
2018-05-02T15:54:48.447Z,44.01
2018-05-02T15:57:19.962Z,43.70
2018-05-02T15:59:50.746Z,44.14
2018-05-02T16:02:21.766Z,43.19
2018-05-02T16:04:52.534Z,44.00
2018-05-02T16:07:23.346Z,44.44
2018-05-02T16:09:54.433Z,44.50
2018-05-02T16:12:25.723Z,44.73
2018-05-02T16:14:56.502Z,44.48
2018-05-02T16:17:27.391Z,44.42
2018-05-02T16:19:58.654Z,44.65
2018-05-02T16:22:29.770Z,44.69
2018-05-02T16:25:00.586Z,45.18
2018-05-02T16:27:31.482Z,44.46
2018-05-02T16:30:02.907Z,44.33
2018-05-02T16:32:33.752Z,44.23
2018-05-02T16:35:03.825Z,44.36
2018-05-02T16:37:34.655Z,44.46
2018-05-02T16:40:05.433Z,44.97
2018-05-02T16:42:37.428Z,45.15
2018-05-02T16:45:08.061Z,45.25
2018-05-02T16:47:40.024Z,45.44
2018-05-02T16:50:09.779Z,45.77
2018-05-02T16:52:40.829Z,45.66
2018-05-02T16:55:10.825Z,45.86
2018-05-02T16:57:42.426Z,46.25
2018-05-02T17:00:12.823Z,46.48
2018-05-02T17:02:43.579Z,46.64
2018-05-02T17:05:14.773Z,46.36
2018-05-02T17:07:45.534Z,46.83
2018-05-02T17:10:16.227Z,46.65
2018-05-02T17:12:47.321Z,46.26
2018-05-02T17:15:18.661Z,46.61
2018-05-02T17:17:49.454Z,46.82
2018-05-02T17:20:20.250Z,46.84
2018-05-02T17:22:51.283Z,46.69
2018-05-02T17:25:22.194Z,46.86
2018-05-02T17:27:53.307Z,46.99
2018-05-02T17:30:24.188Z,46.72
2018-05-02T17:32:54.872Z,46.54
2018-05-02T17:35:25.706Z,46.74
2018-05-02T17:37:56.543Z,46.91
2018-05-02T17:40:27.497Z,47.01
2018-05-02T17:42:58.339Z,47.14
2018-05-02T17:45:29.154Z,47.43
2018-05-02T17:48:00.352Z,47.52
2018-05-02T17:50:31.232Z,47.54
2018-05-02T17:53:02.713Z,47.81
2018-05-02T17:55:33.455Z,48.39
2018-05-02T17:58:04.368Z,48.53
2018-05-02T18:00:35.304Z,48.70
2018-05-02T18:03:06.273Z,49.02
2018-05-02T18:05:36.924Z,49.67
2018-05-02T18:08:07.782Z,49.40
2018-05-02T18:10:38.606Z,49.63
2018-05-02T18:13:09.393Z,49.91
2018-05-02T18:15:40.195Z,50.62
2018-05-02T18:18:11.265Z,50.50
2018-05-02T18:20:47.699Z,50.61
2018-05-02T18:23:16.934Z,50.99
2018-05-02T18:25:46.338Z,51.00
2018-05-02T18:28:15.758Z,50.94
2018-05-02T18:30:46.788Z,50.99
2018-05-02T18:33:17.520Z,51.01
2018-05-02T18:35:48.346Z,51.16
2018-05-02T18:38:18.975Z,51.28
2018-05-02T18:40:49.574Z,51.29
2018-05-02T18:43:20.444Z,51.34
2018-05-02T18:45:51.564Z,51.44
2018-05-02T18:48:22.310Z,51.63
2018-05-02T18:50:53.183Z,51.76
2018-05-02T18:53:24.242Z,51.99
2018-05-02T18:55:55.331Z,52.02
2018-05-02T18:58:26.363Z,52.02
2018-05-02T19:00:57.600Z,52.11
2018-05-02T19:03:28.389Z,52.23
2018-05-02T19:05:59.022Z,52.38
2018-05-02T19:08:29.672Z,52.57
2018-05-02T19:11:00.850Z,52.55
2018-05-02T19:13:31.443Z,52.59
2018-05-02T19:16:02.399Z,52.68
2018-05-02T19:18:38.055Z,52.75
2018-05-02T19:21:07.456Z,52.79
2018-05-02T19:23:36.877Z,52.98
2018-05-02T19:26:11.677Z,54.12
2018-05-02T19:28:40.715Z,54.12
2018-05-02T19:31:15.527Z,54.03
2018-05-02T19:33:49.911Z,54.34
2018-05-02T19:36:19.542Z,54.01
2018-05-02T19:38:48.554Z,55.34
2018-05-02T19:41:22.958Z,55.32
2018-05-02T19:43:57.240Z,56.87
2018-05-02T19:46:26.682Z,57.09
2018-05-02T19:48:55.955Z,56.23
2018-05-02T19:51:30.421Z,56.74
2018-05-02T19:53:59.658Z,56.49
2018-05-02T19:56:28.806Z,56.29
2018-05-02T19:58:57.826Z,55.85
2018-05-02T20:04:31.142Z,55.64
2018-05-02T20:06:59.978Z,55.39
2018-05-02T20:09:34.322Z,55.43
2018-05-02T20:12:08.688Z,55.52
2018-05-02T20:14:38.450Z,55.83
2018-05-02T20:17:07.698Z,56.03
2018-05-02T20:19:36.813Z,56.69
2018-05-02T20:22:12.033Z,56.41
2018-05-02T20:24:45.307Z,56.75
2018-05-02T20:27:14.617Z,56.90
2018-05-02T20:29:44.133Z,56.31
2018-05-02T20:32:13.197Z,56.31
2018-05-02T20:34:42.217Z,56.21
2018-05-02T20:37:11.163Z,56.32
2018-05-02T20:39:41.145Z,56.33
2018-05-02T20:42:10.151Z,56.50
2018-05-02T20:44:39.128Z,56.29
2018-05-02T20:47:08.092Z,56.40
2018-05-02T20:49:37.555Z,56.57
2018-05-02T20:52:06.813Z,56.62
2018-05-02T20:54:35.775Z,56.81
2018-05-02T20:57:04.999Z,56.89
2018-05-02T20:59:33.963Z,56.78
2018-05-02T21:02:02.952Z,56.60
2018-05-02T21:04:31.975Z,56.99
2018-05-02T21:07:00.969Z,57.00
2018-05-02T21:09:29.947Z,57.08
2018-05-02T21:11:58.989Z,57.25
2018-05-02T21:14:28.082Z,57.36
2018-05-02T21:16:57.233Z,57.55
2018-05-02T21:19:26.580Z,57.86
2018-05-02T21:21:55.524Z,57.90
2018-05-02T21:24:24.491Z,58.21
2018-05-02T21:26:53.534Z,58.29
2018-05-02T21:29:22.511Z,58.40
2018-05-02T21:31:51.766Z,58.39
2018-05-02T21:34:20.792Z,58.43
2018-05-02T21:36:49.760Z,58.76
2018-05-02T21:39:19.801Z,58.91
2018-05-02T21:41:49.826Z,59.23
2018-05-02T21:44:19.768Z,59.27
2018-05-02T21:46:50.564Z,59.75
2018-05-02T21:49:21.262Z,59.87
2018-05-02T21:51:52.314Z,60.04
2018-05-02T21:54:23.364Z,60.26
2018-05-02T21:56:54.672Z,60.70
2018-05-02T21:59:25.782Z,61.19
2018-05-02T22:01:56.494Z,61.40
2018-05-02T22:04:27.286Z,61.51
2018-05-02T22:06:58.232Z,61.54
2018-05-02T22:09:29.289Z,61.73
2018-05-02T22:12:00.218Z,61.95
2018-05-02T22:14:31.633Z,61.89
2018-05-02T22:17:02.329Z,62.07
2018-05-02T22:19:33.288Z,62.22
2018-05-02T22:22:04.193Z,62.38
2018-05-02T22:24:35.284Z,62.82
2018-05-02T22:27:06.160Z,62.84
2018-05-02T22:29:37.269Z,63.11
2018-05-02T22:32:08.728Z,63.17
2018-05-02T22:34:39.552Z,63.22
2018-05-02T22:37:10.266Z,63.22
2018-05-02T22:39:41.528Z,63.89
2018-05-02T22:42:12.222Z,63.62
2018-05-02T22:44:43.219Z,64.53
2018-05-02T22:47:14.229Z,63.98
2018-05-02T22:49:45.568Z,64.40
2018-05-02T22:52:16.320Z,64.63
2018-05-02T22:54:46.875Z,64.76
2018-05-02T22:57:17.593Z,64.61
2018-05-02T22:59:48.736Z,64.70
2018-05-02T23:02:18.706Z,64.69
2018-05-02T23:04:49.498Z,64.94
2018-05-02T23:07:20.230Z,64.98
2018-05-02T23:09:51.343Z,65.84
2018-05-02T23:12:22.169Z,65.38
2018-05-02T23:14:53.294Z,66.83
2018-05-02T23:17:24.146Z,66.60
2018-05-02T23:19:55.287Z,66.46
2018-05-02T23:22:26.273Z,66.68
2018-05-02T23:24:57.317Z,66.42
2018-05-02T23:27:28.154Z,66.56
2018-05-02T23:29:59.254Z,66.54
2018-05-02T23:32:29.824Z,66.56
2018-05-02T23:35:00.615Z,66.61
2018-05-02T23:37:31.331Z,66.50
2018-05-02T23:40:02.319Z,66.45
2018-05-02T23:42:33.184Z,66.41
2018-05-02T23:45:03.995Z,66.54
2018-05-02T23:47:35.454Z,66.46
2018-05-02T23:50:06.302Z,66.37
2018-05-02T23:52:36.825Z,66.47
2018-05-02T23:55:07.632Z,66.38
2018-05-02T23:57:38.363Z,66.36
